createdAt,value
2022-10-30T00:00:19.000Z,0
2022-10-30T00:05:48.000Z,0
2022-10-30T00:08:33.000Z,0
2022-10-30T00:11:17.000Z,0
2022-10-30T00:14:02.000Z,0
2022-10-30T00:16:47.000Z,0
2022-10-30T00:22:16.000Z,0
2022-10-30T00:23:43.000Z,0
2022-10-30T00:25:01.000Z,0
2022-10-30T00:27:45.000Z,0
2022-10-30T00:30:30.000Z,0
2022-10-30T00:33:15.000Z,0
2022-10-30T00:38:44.000Z,0
2022-10-30T00:41:28.000Z,0
2022-10-30T00:44:13.000Z,0
2022-10-30T00:46:58.000Z,0
2022-10-30T00:49:59.000Z,0
2022-10-30T00:51:17.000Z,0
2022-10-30T00:52:43.000Z,0
2022-10-30T00:55:28.000Z,0
2022-10-30T00:58:13.000Z,0
2022-10-30T01:00:57.000Z,0
2022-10-30T01:03:42.000Z,0
2022-10-30T01:06:27.000Z,0
2022-10-30T01:09:11.000Z,0
2022-10-30T01:11:56.000Z,0
2022-10-30T01:14:41.000Z,0
2022-10-30T01:17:25.000Z,0
2022-10-30T01:18:43.000Z,0
2022-10-30T01:20:10.000Z,0
2022-10-30T01:22:54.000Z,0
2022-10-30T01:28:24.000Z,0
2022-10-30T01:31:08.000Z,0
2022-10-30T01:33:53.000Z,0
2022-10-30T01:36:38.000Z,0
2022-10-30T01:39:22.000Z,0
2022-10-30T01:42:07.000Z,0
2022-10-30T01:44:52.000Z,0
2022-10-30T01:47:36.000Z,0
2022-10-30T01:48:54.000Z,0
2022-10-30T01:50:21.000Z,0
2022-10-30T01:53:06.000Z,0
2022-10-30T01:58:35.000Z,0
2022-10-30T02:01:20.000Z,0
2022-10-30T02:04:20.000Z,0
2022-10-30T02:07:05.000Z,0
2022-10-30T02:09:50.000Z,0
2022-10-30T02:12:34.000Z,0
2022-10-30T02:15:19.000Z,0
2022-10-30T02:16:37.000Z,0
2022-10-30T02:18:04.000Z,0
2022-10-30T02:20:48.000Z,0
2022-10-30T02:23:33.000Z,0
2022-10-30T02:26:18.000Z,0
2022-10-30T02:29:02.000Z,0
2022-10-30T02:31:47.000Z,0
2022-10-30T02:34:32.000Z,0
2022-10-30T02:37:16.000Z,0
2022-10-30T02:40:01.000Z,0
2022-10-30T02:42:46.000Z,0
2022-10-30T02:44:03.000Z,0
2022-10-30T02:45:46.000Z,0
2022-10-30T02:48:31.000Z,0
2022-10-30T02:51:16.000Z,0
2022-10-30T02:54:00.000Z,0
2022-10-30T02:56:45.000Z,0
2022-10-30T02:59:30.000Z,0
2022-10-30T03:02:14.000Z,0
2022-10-30T03:04:59.000Z,0
2022-10-30T03:07:44.000Z,0
2022-10-30T03:10:28.000Z,0
2022-10-30T03:11:46.000Z,0
2022-10-30T03:13:13.000Z,0
2022-10-30T03:15:57.000Z,0
2022-10-30T03:18:42.000Z,0
2022-10-30T03:21:27.000Z,0
2022-10-30T03:24:11.000Z,0
2022-10-30T03:26:56.000Z,0
2022-10-30T03:29:41.000Z,0
2022-10-30T03:32:25.000Z,0
2022-10-30T03:35:10.000Z,0
2022-10-30T03:37:55.000Z,0
2022-10-30T03:39:12.000Z,0
2022-10-30T03:40:39.000Z,0
2022-10-30T03:43:24.000Z,0
2022-10-30T03:46:09.000Z,0
2022-10-30T03:48:53.000Z,0
2022-10-30T03:51:38.000Z,0
2022-10-30T03:54:22.000Z,0
2022-10-30T03:57:07.000Z,0
2022-10-30T03:59:52.000Z,0
2022-10-30T04:05:21.000Z,0
2022-10-30T04:06:39.000Z,0
2022-10-30T04:08:06.000Z,0
2022-10-30T04:10:50.000Z,0
2022-10-30T04:13:35.000Z,0
2022-10-30T04:16:20.000Z,0
2022-10-30T04:19:04.000Z,0
2022-10-30T04:21:49.000Z,0
2022-10-30T04:24:34.000Z,0
2022-10-30T04:27:18.000Z,0
2022-10-30T04:30:03.000Z,0
2022-10-30T04:32:47.000Z,0
2022-10-30T04:34:05.000Z,0
2022-10-30T04:35:32.000Z,0
2022-10-30T04:38:17.000Z,0
2022-10-30T04:41:01.000Z,0
2022-10-30T04:43:46.000Z,0
2022-10-30T04:46:31.000Z,0
2022-10-30T04:49:15.000Z,0
2022-10-30T04:52:00.000Z,0
2022-10-30T04:54:45.000Z,0
2022-10-30T04:57:29.000Z,0
2022-10-30T05:00:14.000Z,0
2022-10-30T05:01:32.000Z,0
2022-10-30T05:02:58.000Z,0
2022-10-30T05:05:43.000Z,0
2022-10-30T05:08:28.000Z,0
2022-10-30T05:11:12.000Z,0
2022-10-30T05:13:57.000Z,0
2022-10-30T05:16:42.000Z,0
2022-10-30T05:19:26.000Z,0
2022-10-30T05:22:11.000Z,0
2022-10-30T05:24:56.000Z,0
2022-10-30T05:27:40.000Z,0
2022-10-30T05:30:25.000Z,0
2022-10-30T05:33:10.000Z,0
2022-10-30T05:35:54.000Z,0
2022-10-30T05:38:39.000Z,0
2022-10-30T05:41:23.000Z,0
2022-10-30T05:44:08.000Z,0
2022-10-30T05:46:53.000Z,0
2022-10-30T05:49:37.000Z,0
2022-10-30T05:52:22.000Z,0
2022-10-30T05:55:07.000Z,0
2022-10-30T05:56:24.000Z,0
2022-10-30T05:57:51.000Z,0
2022-10-30T06:00:36.000Z,0
2022-10-30T06:03:21.000Z,0
2022-10-30T06:06:05.000Z,0
2022-10-30T06:08:50.000Z,0
2022-10-30T06:11:34.000Z,0
2022-10-30T06:14:19.000Z,0
2022-10-30T06:17:04.000Z,0
2022-10-30T06:19:48.000Z,5
2022-10-30T06:22:33.000Z,5
2022-10-30T06:23:51.000Z,5
2022-10-30T06:25:18.000Z,5
2022-10-30T06:28:02.000Z,11
2022-10-30T06:30:47.000Z,11
2022-10-30T06:33:32.000Z,16
2022-10-30T06:36:16.000Z,16
2022-10-30T06:39:01.000Z,22
2022-10-30T06:41:46.000Z,22
2022-10-30T06:47:15.000Z,33
2022-10-30T06:49:59.000Z,33
2022-10-30T06:51:17.000Z,39
2022-10-30T06:52:44.000Z,39
2022-10-30T06:55:29.000Z,45
2022-10-30T06:58:13.000Z,50
2022-10-30T07:00:58.000Z,73
2022-10-30T07:03:43.000Z,90
2022-10-30T07:06:27.000Z,78
2022-10-30T07:09:12.000Z,78
2022-10-30T07:11:57.000Z,78
2022-10-30T07:14:41.000Z,90
2022-10-30T07:17:26.000Z,106
2022-10-30T07:18:44.000Z,180
2022-10-30T07:20:10.000Z,354
2022-10-30T07:22:55.000Z,455
2022-10-30T07:25:40.000Z,551
2022-10-30T07:28:24.000Z,1091
2022-10-30T07:31:09.000Z,1226
2022-10-30T07:33:54.000Z,1136
2022-10-30T07:36:38.000Z,978
2022-10-30T07:39:23.000Z,624
2022-10-30T07:42:08.000Z,354
2022-10-30T07:44:52.000Z,663
2022-10-30T07:46:10.000Z,787
2022-10-30T07:47:37.000Z,601
2022-10-30T07:50:22.000Z,748
2022-10-30T07:53:06.000Z,956
2022-10-30T07:55:51.000Z,821
2022-10-30T07:58:35.000Z,365
2022-10-30T08:01:20.000Z,264
2022-10-30T08:04:05.000Z,258
2022-10-30T08:06:49.000Z,298
2022-10-30T08:09:34.000Z,275
2022-10-30T08:12:19.000Z,343
2022-10-30T08:13:37.000Z,562
2022-10-30T08:17:48.000Z,725
2022-10-30T08:20:33.000Z,658
2022-10-30T08:23:17.000Z,720
2022-10-30T08:26:02.000Z,393
2022-10-30T08:28:47.000Z,579
2022-10-30T08:31:31.000Z,331
2022-10-30T08:34:16.000Z,545
2022-10-30T08:37:00.000Z,427
2022-10-30T08:39:45.000Z,416
2022-10-30T08:41:03.000Z,326
2022-10-30T08:42:30.000Z,337
2022-10-30T08:45:14.000Z,326
2022-10-30T08:47:59.000Z,343
2022-10-30T08:50:44.000Z,568
2022-10-30T08:53:28.000Z,1288
2022-10-30T08:56:13.000Z,1175
2022-10-30T08:58:58.000Z,1867
2022-10-30T09:01:42.000Z,1721
2022-10-30T09:04:27.000Z,1946
2022-10-30T09:07:11.000Z,2559
2022-10-30T09:08:29.000Z,2677
2022-10-30T09:09:56.000Z,2700
2022-10-30T09:12:41.000Z,2649
2022-10-30T09:15:26.000Z,2210
2022-10-30T09:18:26.000Z,2233
2022-10-30T09:21:11.000Z,2947
2022-10-30T09:23:56.000Z,2829
2022-10-30T09:26:40.000Z,2109
2022-10-30T09:29:25.000Z,2407
2022-10-30T09:32:10.000Z,2761
2022-10-30T09:34:54.000Z,2508
2022-10-30T09:36:12.000Z,2362
2022-10-30T09:37:39.000Z,2210
2022-10-30T09:40:24.000Z,1777
2022-10-30T09:43:08.000Z,1406
2022-10-30T09:45:53.000Z,1530
2022-10-30T09:48:37.000Z,1209
2022-10-30T09:51:22.000Z,1186
2022-10-30T09:54:07.000Z,382
2022-10-30T09:56:51.000Z,382
2022-10-30T09:59:36.000Z,360
2022-10-30T10:02:21.000Z,405
2022-10-30T10:03:38.000Z,337
2022-10-30T10:05:05.000Z,331
2022-10-30T10:07:50.000Z,326
2022-10-30T10:10:35.000Z,320
2022-10-30T10:13:19.000Z,315
2022-10-30T10:16:04.000Z,708
2022-10-30T10:18:49.000Z,500
2022-10-30T10:21:33.000Z,309
2022-10-30T10:24:18.000Z,309
2022-10-30T10:27:02.000Z,444
2022-10-30T10:31:05.000Z,388
2022-10-30T10:32:32.000Z,950
2022-10-30T10:35:16.000Z,731
2022-10-30T10:38:01.000Z,270
2022-10-30T10:40:46.000Z,275
2022-10-30T10:43:30.000Z,247
2022-10-30T10:46:15.000Z,247
2022-10-30T10:49:00.000Z,247
2022-10-30T10:51:44.000Z,236
2022-10-30T10:54:29.000Z,247
2022-10-30T10:57:13.000Z,253
2022-10-30T10:58:31.000Z,241
2022-10-30T10:59:58.000Z,247
2022-10-30T11:02:43.000Z,241
2022-10-30T11:05:27.000Z,230
2022-10-30T11:08:12.000Z,208
2022-10-30T11:13:41.000Z,320
2022-10-30T11:16:26.000Z,298
2022-10-30T11:19:11.000Z,230
2022-10-30T11:21:55.000Z,309
2022-10-30T11:24:40.000Z,371
2022-10-30T11:25:58.000Z,590
2022-10-30T11:27:25.000Z,399
2022-10-30T11:32:37.000Z,213
2022-10-30T11:35:22.000Z,191
2022-10-30T11:38:07.000Z,219
2022-10-30T11:40:51.000Z,219
2022-10-30T11:43:36.000Z,185
2022-10-30T11:46:21.000Z,174
2022-10-30T11:49:05.000Z,174
2022-10-30T11:51:50.000Z,174
2022-10-30T11:53:24.000Z,168
2022-10-30T11:54:42.000Z,168
2022-10-30T12:00:11.000Z,168
2022-10-30T12:02:56.000Z,174
2022-10-30T12:08:09.000Z,168
2022-10-30T12:10:53.000Z,174
2022-10-30T12:13:38.000Z,163
2022-10-30T12:16:23.000Z,168
2022-10-30T12:20:51.000Z,157
2022-10-30T12:22:08.000Z,157
2022-10-30T12:24:53.000Z,157
2022-10-30T12:27:38.000Z,151
2022-10-30T12:30:22.000Z,151
2022-10-30T12:33:07.000Z,151
2022-10-30T12:35:51.000Z,146
2022-10-30T12:41:21.000Z,151
2022-10-30T12:44:05.000Z,157
2022-10-30T12:48:17.000Z,168
2022-10-30T12:49:35.000Z,168
2022-10-30T12:52:19.000Z,174
2022-10-30T12:55:04.000Z,213
2022-10-30T12:57:49.000Z,185
2022-10-30T13:00:33.000Z,163
2022-10-30T13:03:18.000Z,157
2022-10-30T13:06:03.000Z,157
2022-10-30T13:08:47.000Z,151
2022-10-30T13:11:32.000Z,157
2022-10-30T13:14:16.000Z,174
2022-10-30T13:15:43.000Z,180
2022-10-30T13:17:01.000Z,168
2022-10-30T13:19:46.000Z,163
2022-10-30T13:22:30.000Z,151
2022-10-30T13:25:15.000Z,146
2022-10-30T13:28:00.000Z,135
2022-10-30T13:30:44.000Z,129
2022-10-30T13:33:29.000Z,129
2022-10-30T13:38:58.000Z,112
2022-10-30T13:41:43.000Z,112
2022-10-30T13:43:10.000Z,106
2022-10-30T13:44:28.000Z,106
2022-10-30T13:47:12.000Z,101
2022-10-30T13:49:57.000Z,101
2022-10-30T13:57:54.000Z,106
2022-10-30T14:03:24.000Z,106
2022-10-30T14:06:08.000Z,106
2022-10-30T14:08:53.000Z,106
2022-10-30T14:10:36.000Z,106
2022-10-30T14:11:54.000Z,101
2022-10-30T14:14:39.000Z,95
2022-10-30T14:17:40.000Z,95
2022-10-30T14:20:24.000Z,90
2022-10-30T14:23:09.000Z,84
2022-10-30T14:25:54.000Z,78
2022-10-30T14:28:38.000Z,78
2022-10-30T14:36:52.000Z,73
2022-10-30T14:38:10.000Z,67
2022-10-30T14:39:37.000Z,67
2022-10-30T14:42:21.000Z,67
2022-10-30T14:45:06.000Z,61
2022-10-30T14:47:51.000Z,61
2022-10-30T14:50:35.000Z,61
2022-10-30T14:53:20.000Z,56
2022-10-30T14:56:05.000Z,50
2022-10-30T14:59:06.000Z,50
2022-10-30T15:01:50.000Z,45
2022-10-30T15:05:53.000Z,45
2022-10-30T15:07:20.000Z,45
2022-10-30T15:10:04.000Z,45
2022-10-30T15:12:49.000Z,45
2022-10-30T15:18:18.000Z,39
2022-10-30T15:21:03.000Z,39
2022-10-30T15:23:47.000Z,33
2022-10-30T15:26:32.000Z,28
2022-10-30T15:29:17.000Z,22
2022-10-30T15:32:01.000Z,22
2022-10-30T15:33:19.000Z,16
2022-10-30T15:34:46.000Z,16
2022-10-30T15:37:31.000Z,16
2022-10-30T15:40:15.000Z,16
2022-10-30T15:43:00.000Z,11
2022-10-30T15:45:44.000Z,11
2022-10-30T15:48:29.000Z,11
2022-10-30T15:51:14.000Z,5
2022-10-30T15:53:58.000Z,5
2022-10-30T15:56:43.000Z,5
2022-10-30T15:59:28.000Z,5
2022-10-30T16:00:46.000Z,0
2022-10-30T16:02:12.000Z,0
2022-10-30T16:04:57.000Z,0
2022-10-30T16:07:42.000Z,0
2022-10-30T16:10:26.000Z,0
2022-10-30T16:13:11.000Z,0
2022-10-30T16:15:56.000Z,0
2022-10-30T16:18:40.000Z,0
2022-10-30T16:21:25.000Z,0
2022-10-30T16:24:09.000Z,0
2022-10-30T16:26:54.000Z,0
2022-10-30T16:29:39.000Z,0
2022-10-30T16:30:56.000Z,0
2022-10-30T16:32:23.000Z,0
2022-10-30T16:35:08.000Z,0
2022-10-30T16:37:53.000Z,0
2022-10-30T16:40:37.000Z,0
2022-10-30T16:43:22.000Z,0
2022-10-30T16:46:23.000Z,0
2022-10-30T16:49:08.000Z,0
2022-10-30T16:51:52.000Z,0
2022-10-30T16:54:37.000Z,0
2022-10-30T16:57:22.000Z,0
2022-10-30T16:58:39.000Z,0
2022-10-30T17:00:06.000Z,0
2022-10-30T17:02:51.000Z,0
2022-10-30T17:05:35.000Z,0
2022-10-30T17:08:20.000Z,0
2022-10-30T17:11:05.000Z,0
2022-10-30T17:16:34.000Z,0
2022-10-30T17:19:19.000Z,0
2022-10-30T17:22:03.000Z,0
2022-10-30T17:24:48.000Z,0
2022-10-30T17:26:06.000Z,0
2022-10-30T17:27:33.000Z,0
2022-10-30T17:30:17.000Z,0
2022-10-30T17:33:02.000Z,0
2022-10-30T17:35:46.000Z,0
2022-10-30T17:38:31.000Z,0
2022-10-30T17:41:16.000Z,0
2022-10-30T17:44:00.000Z,0
2022-10-30T17:46:45.000Z,0
2022-10-30T17:49:30.000Z,0
2022-10-30T17:52:31.000Z,0
2022-10-30T17:53:48.000Z,0
2022-10-30T17:55:15.000Z,0
2022-10-30T18:00:45.000Z,0
2022-10-30T18:03:29.000Z,0
2022-10-30T18:08:59.000Z,0
2022-10-30T18:11:43.000Z,0
2022-10-30T18:14:28.000Z,0
2022-10-30T18:17:12.000Z,0
2022-10-30T18:19:57.000Z,0
2022-10-30T18:25:26.000Z,0
2022-10-30T18:28:11.000Z,0
2022-10-30T18:33:40.000Z,0
2022-10-30T18:36:25.000Z,0
2022-10-30T18:39:10.000Z,0
2022-10-30T18:41:54.000Z,0
2022-10-30T18:44:39.000Z,0
2022-10-30T18:48:41.000Z,0
2022-10-30T18:50:08.000Z,0
2022-10-30T18:52:53.000Z,0
2022-10-30T18:55:37.000Z,0
2022-10-30T18:58:22.000Z,0
2022-10-30T19:01:07.000Z,0
2022-10-30T19:03:51.000Z,0
2022-10-30T19:06:36.000Z,0
2022-10-30T19:09:21.000Z,0
2022-10-30T19:12:05.000Z,0
2022-10-30T19:14:50.000Z,0
2022-10-30T19:16:08.000Z,0
2022-10-30T19:17:35.000Z,0
2022-10-30T19:23:04.000Z,0
2022-10-30T19:25:48.000Z,0
2022-10-30T19:28:33.000Z,0
2022-10-30T19:31:18.000Z,0
2022-10-30T19:34:02.000Z,0
2022-10-30T19:36:47.000Z,0
2022-10-30T19:39:32.000Z,0
2022-10-30T19:42:16.000Z,0
2022-10-30T19:43:34.000Z,0
2022-10-30T19:45:01.000Z,0
2022-10-30T19:47:46.000Z,0
2022-10-30T19:50:30.000Z,0
2022-10-30T19:53:15.000Z,0
2022-10-30T19:56:00.000Z,0
2022-10-30T19:58:44.000Z,0
2022-10-30T20:01:29.000Z,0
2022-10-30T20:04:13.000Z,0
2022-10-30T20:06:58.000Z,0
2022-10-30T20:09:43.000Z,0
2022-10-30T20:11:01.000Z,0
2022-10-30T20:12:27.000Z,0
2022-10-30T20:15:12.000Z,0
2022-10-30T20:17:57.000Z,0
2022-10-30T20:20:41.000Z,0
2022-10-30T20:23:26.000Z,0
2022-10-30T20:26:11.000Z,0
2022-10-30T20:28:55.000Z,0
2022-10-30T20:31:40.000Z,0
2022-10-30T20:37:09.000Z,0
2022-10-30T20:39:54.000Z,0
2022-10-30T20:42:38.000Z,0
2022-10-30T20:45:23.000Z,0
2022-10-30T20:48:08.000Z,0
2022-10-30T20:50:52.000Z,0
2022-10-30T20:53:37.000Z,0
2022-10-30T20:56:22.000Z,0
2022-10-30T21:01:51.000Z,0
2022-10-30T21:04:36.000Z,0
2022-10-30T21:05:53.000Z,0
2022-10-30T21:07:20.000Z,0
2022-10-30T21:10:05.000Z,0
2022-10-30T21:12:49.000Z,0
2022-10-30T21:18:19.000Z,0
2022-10-30T21:21:03.000Z,0
2022-10-30T21:23:48.000Z,0
2022-10-30T21:26:49.000Z,0
2022-10-30T21:29:34.000Z,0
2022-10-30T21:33:36.000Z,0
2022-10-30T21:35:03.000Z,0
2022-10-30T21:37:48.000Z,0
2022-10-30T21:43:17.000Z,0
2022-10-30T21:46:02.000Z,0
2022-10-30T21:48:46.000Z,0
2022-10-30T21:51:31.000Z,0
2022-10-30T21:54:15.000Z,0
2022-10-30T21:57:00.000Z,0
2022-10-30T22:00:01.000Z,0
2022-10-30T22:01:19.000Z,0
2022-10-30T22:02:46.000Z,0
2022-10-30T22:05:30.000Z,0
2022-10-30T22:08:15.000Z,0
2022-10-30T22:11:00.000Z,0
2022-10-30T22:16:29.000Z,0
2022-10-30T22:19:14.000Z,0
2022-10-30T22:21:58.000Z,0
2022-10-30T22:24:43.000Z,0
2022-10-30T22:27:28.000Z,0
2022-10-30T22:28:45.000Z,0
2022-10-30T22:30:12.000Z,0
2022-10-30T22:32:57.000Z,0
2022-10-30T22:35:41.000Z,0
2022-10-30T22:38:26.000Z,0
2022-10-30T22:41:11.000Z,0
2022-10-30T22:43:55.000Z,0
2022-10-30T22:46:40.000Z,0
2022-10-30T22:49:25.000Z,0
2022-10-30T22:52:09.000Z,0
2022-10-30T22:54:54.000Z,0
2022-10-30T22:56:12.000Z,0
2022-10-30T22:57:39.000Z,0
2022-10-30T23:00:23.000Z,0
2022-10-30T23:05:52.000Z,0
2022-10-30T23:08:37.000Z,0
2022-10-30T23:14:23.000Z,0
2022-10-30T23:17:07.000Z,0
2022-10-30T23:19:52.000Z,0
2022-10-30T23:22:37.000Z,0
2022-10-30T23:23:54.000Z,0
2022-10-30T23:25:21.000Z,0
2022-10-30T23:30:51.000Z,0
2022-10-30T23:33:35.000Z,0
2022-10-30T23:36:20.000Z,0
2022-10-30T23:39:05.000Z,0
2022-10-30T23:41:49.000Z,0
2022-10-30T23:44:34.000Z,0
2022-10-30T23:47:18.000Z,0
2022-10-30T23:50:03.000Z,0
2022-10-30T23:51:21.000Z,0
2022-10-30T23:52:48.000Z,0
2022-10-30T23:55:32.000Z,0
2022-10-30T23:58:17.000Z,0
